Estestar — 3ECR8 — position and weather

sailwx.info

Track history (hours):
 
Tides and Currents Weather Stations Pressure Air Temp Water Temp Dewpoint Dewpoint Depression Visibility Wind Speed Wind Dir Waves Ship Positions

Estestar

Last reported at 2014-Jul-19 14:32 UTC. Time now 2014-Jul-22 13:28 UTC.
Position N 43°23' W 003°07'.

Length 133 m; draft 4.6 m.

Type: Cargo ship. MMSI: 371448000.

Date/timePositionNaut miles runAvg speedWind from/ knotsBaromVisibWave heightAir tempDewpointWater temp
2014-Jul-19 14:32N 43°23' W 003°07'0 0.1
2014-Jul-19 13:32N 43°23' W 003°07'0 0.1
2014-Jul-19 12:29N 43°23' W 003°07'0 0.1
2014-Jul-19 11:32N 43°23' W 003°07'0 0.0
2014-Jul-19 10:32N 43°23' W 003°07'4 4.4
2014-Jul-19 09:33N 43°27' W 003°08'1010.3
2014-Jul-19 08:33N 43°36' W 003°13'1010.3
2014-Jul-19 07:33N 43°46' W 003°19'1010.3
2014-Jul-19 06:33N 43°55' W 003°24'1010.6
2014-Jul-19 05:33N 44°05' W 003°30'2610.9
2014-Jul-19 03:11N 44°29' W 003°44'811.3
2014-Jul-19 02:31N 44°36' W 003°48'1111.3
2014-Jul-19 01:32N 44°46' W 003°54'1211.8
2014-Jul-19 00:33N 44°57' W 004°01'20710.9
2014-Jul-18 05:33N 48°08' W 005°56'185 9.7
2014-Jul-17 10:31N 50°07' W 002°18'9 9.1
2014-Jul-17 09:31N 50°09' W 002°04'1010.3
2014-Jul-17 08:33N 50°12' W 001°49'1212.1
2014-Jul-17 07:33N 50°15' W 001°31'1413.7
2014-Jul-17 06:34N 50°19' W 001°11'1515.0
2014-Jul-17 05:33N 50°23' W 000°47'1413.7
2014-Jul-17 04:33N 50°26' W 000°27'1312.4
2014-Jul-17 03:30N 50°30' W 000°07'1111.1
2014-Jul-17 02:30N 50°33' E 000°10'9 9.8
2014-Jul-17 01:33N 50°35' E 000°24'9 8.9
2014-Jul-17 00:33N 50°39' E 000°37'9 9.1
2014-Jul-16 23:33N 50°44' E 000°49'1110.7
2014-Jul-16 22:33N 50°50' E 001°02'1212.1
2014-Jul-16 21:33N 50°59' E 001°16'1312.9
2014-Jul-16 20:34N 51°07' E 001°32'1111.0
2014-Jul-16 19:34N 51°14' E 001°45'10 9.6
2014-Jul-16 18:33N 51°21' E 001°55'8 7.8
2014-Jul-16 17:33N 51°23' E 002°07'9 9.4
2014-Jul-16 16:34N 51°21' E 002°22'8 7.9
2014-Jul-16 15:32N 51°25' E 002°34'0 0.2
2014-Jul-16 14:22N 51°25' E 002°35'0 0.1
2014-Jul-16 12:25N 51°25' E 002°34'0 0.0
2014-Jul-16 11:28N 51°25' E 002°34'0 0.0
2014-Jul-16 10:25N 51°25' E 002°34'0 0.0
2014-Jul-16 09:31N 51°25' E 002°34'0 0.0
2014-Jul-16 08:28N 51°25' E 002°34'0 0.1
2014-Jul-16 07:25N 51°25' E 002°34'0 0.0
2014-Jul-16 06:25N 51°25' E 002°34'0 0.0
2014-Jul-16 05:31N 51°25' E 002°34'0 0.0
2014-Jul-16 04:25N 51°25' E 002°34'0 0.0
2014-Jul-16 03:31N 51°25' E 002°35'0 0.0
2014-Jul-16 02:28N 51°25' E 002°35'0 0.0
2014-Jul-16 01:19N 51°25' E 002°35'0 0.1
2014-Jul-16 00:13N 51°25' E 002°34'0 0.0
2014-Jul-15 23:22N 51°25' E 002°34'0 0.0
2014-Jul-15 22:25N 51°25' E 002°34'0 0.0
2014-Jul-15 21:31N 51°25' E 002°34'0 0.1
2014-Jul-15 20:25N 51°25' E 002°34'0 0.1
2014-Jul-15 19:28N 51°25' E 002°35'0 0.0
2014-Jul-15 17:07N 51°25' E 002°35'0 0.0
2014-Jul-15 16:10N 51°25' E 002°35'0 0.0
2014-Jul-15 14:22N 51°25' E 002°35'0 0.0
2014-Jul-15 13:31N 51°25' E 002°34'0 0.1
2014-Jul-15 12:31N 51°25' E 002°34'0 0.1
2014-Jul-15 11:31N 51°25' E 002°34'0 0.0
2014-Jul-15 10:31N 51°25' E 002°34'0 0.0
2014-Jul-15 09:31N 51°25' E 002°34'0 0.1
2014-Jul-15 08:31N 51°25' E 002°34'0 0.1
2014-Jul-15 07:31N 51°25' E 002°35'0 0.0
2014-Jul-15 06:31N 51°25' E 002°35'0 0.0
2014-Jul-15 05:31N 51°25' E 002°35'0 0.0
2014-Jul-15 04:28N 51°25' E 002°35'0 0.0
2014-Jul-15 03:28N 51°25' E 002°35'0 0.0
2014-Jul-15 02:33N 51°25' E 002°35'0 0.0
2014-Jul-15 01:33N 51°25' E 002°35'0 0.0
2014-Jul-15 00:33N 51°25' E 002°35'0 0.1
2014-Jul-14 23:31N 51°25' E 002°34'0 0.1
2014-Jul-14 22:33N 51°25' E 002°34'0 0.0
2014-Jul-14 21:30N 51°25' E 002°34'0 0.3
2014-Jul-14 20:30N 51°25' E 002°34'8 8.3
2014-Jul-14 19:34N 51°22' E 002°46'1110.6
2014-Jul-14 18:31N 51°25' E 003°03'1111.5
2014-Jul-14 17:32N 51°24' E 003°21'1110.8
2014-Jul-14 16:33N 51°25' E 003°38'9 8.9
2014-Jul-14 15:34N 51°20' E 003°49'2 1.9
2014-Jul-14 14:34N 51°18' E 003°50'8 7.5
2014-Jul-14 13:34N 51°10' E 003°48'6 5.6
2014-Jul-14 12:33N 51°05' E 003°44'0 0.0
2014-Jul-14 11:34N 51°05' E 003°44'0 0.0
2014-Jul-14 10:34N 51°05' E 003°44'0 0.0
2014-Jul-14 09:34N 51°05' E 003°44'0 0.0
2014-Jul-14 08:33N 51°05' E 003°44'0 0.0
2014-Jul-14 07:33N 51°05' E 003°44'0 0.0
2014-Jul-14 06:33N 51°05' E 003°44'0 0.0
2014-Jul-14 05:34N 51°05' E 003°44'0 0.0
2014-Jul-14 04:34N 51°05' E 003°44'0 0.0
2014-Jul-14 03:33N 51°05' E 003°44'0 0.0
2014-Jul-14 02:33N 51°05' E 003°44'0 0.0
2014-Jul-14 01:34N 51°05' E 003°44'0 0.0
2014-Jul-14 00:33N 51°05' E 003°44'0 0.0
2014-Jul-13 23:33N 51°05' E 003°44'0 0.0
2014-Jul-13 22:33N 51°05' E 003°44'0 0.0
2014-Jul-13 21:33N 51°05' E 003°44'0 0.0
2014-Jul-13 20:33N 51°05' E 003°44'0 0.0
2014-Jul-13 19:34N 51°05' E 003°44'0 0.0
2014-Jul-13 18:34N 51°05' E 003°44'0 0.0
2014-Jul-13 17:34N 51°05' E 003°44'0 0.0
2014-Jul-13 16:33N 51°05' E 003°44'0 0.0
2014-Jul-13 15:34N 51°05' E 003°44'0 0.0
2014-Jul-13 14:34N 51°05' E 003°44'0 0.0
2014-Jul-13 13:34N 51°05' E 003°44'0 0.0
2014-Jul-13 12:33N 51°05' E 003°44'0 0.0
2014-Jul-13 11:33N 51°05' E 003°44'0 0.0
2014-Jul-13 10:33N 51°05' E 003°44'0 0.0
2014-Jul-13 09:33N 51°05' E 003°44'0 0.0
2014-Jul-13 08:33N 51°05' E 003°44'0 0.0
2014-Jul-13 07:34N 51°05' E 003°44'0 0.0
2014-Jul-13 06:34N 51°05' E 003°44'0 0.0
2014-Jul-13 05:34N 51°05' E 003°44'0 0.0
2014-Jul-13 04:34N 51°05' E 003°44'0 0.0
2014-Jul-13 03:33N 51°05' E 003°44'0 0.0
2014-Jul-13 02:34N 51°05' E 003°44'0 0.0
2014-Jul-13 01:34N 51°05' E 003°44'0 0.0
2014-Jul-13 00:34N 51°05' E 003°44'0 0.0
2014-Jul-12 23:33N 51°05' E 003°44'0 0.0
2014-Jul-12 22:33N 51°05' E 003°44'0 0.0
2014-Jul-12 21:33N 51°05' E 003°44'0 0.0
2014-Jul-12 20:33N 51°05' E 003°44'0 0.0
2014-Jul-12 19:34N 51°05' E 003°44'0 0.0
2014-Jul-12 18:34N 51°05' E 003°44'0 0.0
2014-Jul-12 17:33N 51°05' E 003°44'0 0.0
2014-Jul-12 16:34N 51°05' E 003°44'0 0.0
2014-Jul-12 15:34N 51°05' E 003°44'0 0.0
2014-Jul-12 14:34N 51°05' E 003°44'0 0.0
2014-Jul-12 13:33N 51°05' E 003°44'0 0.0
2014-Jul-12 12:34N 51°05' E 003°44'0 0.0
2014-Jul-12 11:33N 51°05' E 003°44'0 0.0
2014-Jul-12 10:33N 51°05' E 003°44'0 0.0
2014-Jul-12 09:33N 51°05' E 003°44'0 0.0
2014-Jul-12 08:33N 51°05' E 003°44'0 0.0
2014-Jul-12 07:34N 51°05' E 003°44'0 0.0
2014-Jul-12 06:34N 51°05' E 003°44'0 0.0
2014-Jul-12 05:34N 51°05' E 003°44'0 0.0
2014-Jul-12 04:34N 51°05' E 003°44'0 0.0
2014-Jul-12 03:33N 51°05' E 003°44'0 0.0
2014-Jul-12 02:33N 51°05' E 003°44'0 0.0
2014-Jul-12 01:34N 51°05' E 003°44'0 0.0
2014-Jul-12 00:33N 51°05' E 003°44'0 0.0
2014-Jul-11 23:33N 51°05' E 003°44'0 0.0
2014-Jul-11 22:33N 51°05' E 003°44'0 0.0
2014-Jul-11 21:33N 51°05' E 003°44'0 0.0
2014-Jul-11 20:33N 51°05' E 003°44'0 0.0
2014-Jul-11 19:33N 51°05' E 003°44'0 0.0
2014-Jul-11 18:33N 51°05' E 003°44'0 0.0
2014-Jul-11 17:33N 51°05' E 003°44'0 0.0
2014-Jul-11 16:33N 51°05' E 003°44'0 0.0
2014-Jul-11 15:33N 51°05' E 003°44'0 0.0
2014-Jul-11 14:33N 51°05' E 003°44'0 0.0
2014-Jul-11 13:33N 51°05' E 003°44'0 0.0
2014-Jul-11 12:33N 51°05' E 003°44'0 0.0
2014-Jul-11 11:33N 51°05' E 003°44'0 0.0
2014-Jul-11 10:33N 51°05' E 003°44'0 0.0
2014-Jul-11 09:33N 51°05' E 003°44'0 0.0
2014-Jul-11 08:33N 51°05' E 003°44'0 0.0
2014-Jul-11 07:33N 51°05' E 003°44'0 0.0
2014-Jul-11 06:34N 51°05' E 003°44'0 0.0
2014-Jul-11 05:33N 51°05' E 003°44'0 0.0
2014-Jul-11 04:33N 51°05' E 003°44'0 0.0
2014-Jul-11 03:33N 51°05' E 003°44'0 0.0
2014-Jul-11 02:33N 51°05' E 003°44'0 0.0
2014-Jul-11 01:33N 51°05' E 003°44'0 0.0
2014-Jul-11 00:33N 51°05' E 003°44'0 0.0
2014-Jul-10 23:33N 51°05' E 003°44'0 0.0
2014-Jul-10 22:33N 51°05' E 003°44'0 0.0
2014-Jul-10 21:33N 51°05' E 003°44'0 0.0
2014-Jul-10 20:33N 51°05' E 003°44'0 0.0
2014-Jul-10 19:33N 51°05' E 003°44'0 0.0
2014-Jul-10 18:33N 51°05' E 003°44'0 0.0
2014-Jul-10 17:33N 51°05' E 003°44'0 0.0
2014-Jul-10 16:33N 51°05' E 003°44'0 0.0
2014-Jul-10 15:33N 51°05' E 003°44'0 0.0
2014-Jul-10 14:34N 51°05' E 003°44'0 0.0
2014-Jul-10 13:33N 51°05' E 003°44'0 0.0
2014-Jul-10 12:33N 51°05' E 003°44'0 0.0
2014-Jul-10 11:33N 51°05' E 003°44'0 0.0
2014-Jul-10 10:33N 51°05' E 003°44'0 0.0
2014-Jul-10 09:33N 51°05' E 003°44'0 0.0
2014-Jul-10 08:33N 51°05' E 003°44'0 0.0
2014-Jul-10 07:33N 51°05' E 003°44'0 0.0
2014-Jul-10 06:34N 51°05' E 003°44'0 0.0
2014-Jul-10 05:34N 51°05' E 003°44'0 0.0
2014-Jul-10 04:34N 51°05' E 003°44'0 0.0
2014-Jul-10 03:33N 51°05' E 003°44'0 0.0
2014-Jul-10 02:34N 51°05' E 003°44'0 0.0
2014-Jul-10 01:33N 51°05' E 003°44'0 0.0
2014-Jul-10 00:33N 51°05' E 003°44'0 0.3
2014-Jul-09 23:33N 51°05' E 003°44'6 6.1
2014-Jul-09 22:33N 51°11' E 003°48'7 7.1
2014-Jul-09 21:33N 51°18' E 003°50'3 2.7
2014-Jul-09 20:34N 51°20' E 003°49'1010.1
2014-Jul-09 19:34N 51°26' E 003°35'1010.1
2014-Jul-09 18:33N 51°24' E 003°19'9 8.5
2014-Jul-09 17:27N 51°24' E 003°04'5 5.1
2014-Jul-09 16:34N 51°23' E 002°57'5 5.3
2014-Jul-09 15:33N 51°21' E 002°49'6 6.3
2014-Jul-09 14:33N 51°21' E 002°39'  
Track history (hours):
 
Tides and Currents Weather Stations Pressure Air Temp Water Temp Dewpoint Dewpoint Depression Visibility Wind Speed Wind Dir Waves Ship Positions

Estestar

Last reported at 2014-Jul-19 14:32 UTC. Time now 2014-Jul-22 13:28 UTC.
Position N 43°23' W 003°07'.

Length 133 m; draft 4.6 m.

Type: Cargo ship. MMSI: 371448000.

Date/timePositionNaut miles runAvg speedWind from/ knotsBaromVisibWave heightAir tempDewpointWater temp
2014-Jul-19 14:32N 43°23' W 003°07'0 0.1
2014-Jul-19 13:32N 43°23' W 003°07'0 0.1
2014-Jul-19 12:29N 43°23' W 003°07'0 0.1
2014-Jul-19 11:32N 43°23' W 003°07'0 0.0
2014-Jul-19 10:32N 43°23' W 003°07'4 4.4
2014-Jul-19 09:33N 43°27' W 003°08'1010.3
2014-Jul-19 08:33N 43°36' W 003°13'1010.3
2014-Jul-19 07:33N 43°46' W 003°19'1010.3
2014-Jul-19 06:33N 43°55' W 003°24'1010.6
2014-Jul-19 05:33N 44°05' W 003°30'2610.9
2014-Jul-19 03:11N 44°29' W 003°44'811.3
2014-Jul-19 02:31N 44°36' W 003°48'1111.3
2014-Jul-19 01:32N 44°46' W 003°54'1211.8
2014-Jul-19 00:33N 44°57' W 004°01'20710.9
2014-Jul-18 05:33N 48°08' W 005°56'185 9.7
2014-Jul-17 10:31N 50°07' W 002°18'9 9.1
2014-Jul-17 09:31N 50°09' W 002°04'1010.3
2014-Jul-17 08:33N 50°12' W 001°49'1212.1
2014-Jul-17 07:33N 50°15' W 001°31'1413.7
2014-Jul-17 06:34N 50°19' W 001°11'1515.0
2014-Jul-17 05:33N 50°23' W 000°47'1413.7
2014-Jul-17 04:33N 50°26' W 000°27'1312.4
2014-Jul-17 03:30N 50°30' W 000°07'1111.1
2014-Jul-17 02:30N 50°33' E 000°10'9 9.8
2014-Jul-17 01:33N 50°35' E 000°24'9 8.9
2014-Jul-17 00:33N 50°39' E 000°37'9 9.1
2014-Jul-16 23:33N 50°44' E 000°49'1110.7
2014-Jul-16 22:33N 50°50' E 001°02'1212.1
2014-Jul-16 21:33N 50°59' E 001°16'1312.9
2014-Jul-16 20:34N 51°07' E 001°32'1111.0
2014-Jul-16 19:34N 51°14' E 001°45'10 9.6
2014-Jul-16 18:33N 51°21' E 001°55'8 7.8
2014-Jul-16 17:33N 51°23' E 002°07'9 9.4
2014-Jul-16 16:34N 51°21' E 002°22'8 7.9
2014-Jul-16 15:32N 51°25' E 002°34'0 0.2
2014-Jul-16 14:22N 51°25' E 002°35'0 0.1
2014-Jul-16 12:25N 51°25' E 002°34'0 0.0
2014-Jul-16 11:28N 51°25' E 002°34'0 0.0
2014-Jul-16 10:25N 51°25' E 002°34'0 0.0
2014-Jul-16 09:31N 51°25' E 002°34'0 0.0
2014-Jul-16 08:28N 51°25' E 002°34'0 0.1
2014-Jul-16 07:25N 51°25' E 002°34'0 0.0
2014-Jul-16 06:25N 51°25' E 002°34'0 0.0
2014-Jul-16 05:31N 51°25' E 002°34'0 0.0
2014-Jul-16 04:25N 51°25' E 002°34'0 0.0
2014-Jul-16 03:31N 51°25' E 002°35'0 0.0
2014-Jul-16 02:28N 51°25' E 002°35'0 0.0
2014-Jul-16 01:19N 51°25' E 002°35'0 0.1
2014-Jul-16 00:13N 51°25' E 002°34'0 0.0
2014-Jul-15 23:22N 51°25' E 002°34'0 0.0
2014-Jul-15 22:25N 51°25' E 002°34'0 0.0
2014-Jul-15 21:31N 51°25' E 002°34'0 0.1
2014-Jul-15 20:25N 51°25' E 002°34'0 0.1
2014-Jul-15 19:28N 51°25' E 002°35'0 0.0
2014-Jul-15 17:07N 51°25' E 002°35'0 0.0
2014-Jul-15 16:10N 51°25' E 002°35'0 0.0
2014-Jul-15 14:22N 51°25' E 002°35'0 0.0
2014-Jul-15 13:31N 51°25' E 002°34'0 0.1
2014-Jul-15 12:31N 51°25' E 002°34'0 0.1
2014-Jul-15 11:31N 51°25' E 002°34'0 0.0
2014-Jul-15 10:31N 51°25' E 002°34'0 0.0
2014-Jul-15 09:31N 51°25' E 002°34'0 0.1
2014-Jul-15 08:31N 51°25' E 002°34'0 0.1
2014-Jul-15 07:31N 51°25' E 002°35'0 0.0
2014-Jul-15 06:31N 51°25' E 002°35'0 0.0
2014-Jul-15 05:31N 51°25' E 002°35'0 0.0
2014-Jul-15 04:28N 51°25' E 002°35'0 0.0
2014-Jul-15 03:28N 51°25' E 002°35'0 0.0
2014-Jul-15 02:33N 51°25' E 002°35'0 0.0
2014-Jul-15 01:33N 51°25' E 002°35'0 0.0
2014-Jul-15 00:33N 51°25' E 002°35'0 0.1
2014-Jul-14 23:31N 51°25' E 002°34'0 0.1
2014-Jul-14 22:33N 51°25' E 002°34'0 0.0
2014-Jul-14 21:30N 51°25' E 002°34'0 0.3
2014-Jul-14 20:30N 51°25' E 002°34'8 8.3
2014-Jul-14 19:34N 51°22' E 002°46'1110.6
2014-Jul-14 18:31N 51°25' E 003°03'1111.5
2014-Jul-14 17:32N 51°24' E 003°21'1110.8
2014-Jul-14 16:33N 51°25' E 003°38'9 8.9
2014-Jul-14 15:34N 51°20' E 003°49'2 1.9
2014-Jul-14 14:34N 51°18' E 003°50'8 7.5
2014-Jul-14 13:34N 51°10' E 003°48'6 5.6
2014-Jul-14 12:33N 51°05' E 003°44'0 0.0
2014-Jul-14 11:34N 51°05' E 003°44'0 0.0
2014-Jul-14 10:34N 51°05' E 003°44'0 0.0
2014-Jul-14 09:34N 51°05' E 003°44'0 0.0
2014-Jul-14 08:33N 51°05' E 003°44'0 0.0
2014-Jul-14 07:33N 51°05' E 003°44'0 0.0
2014-Jul-14 06:33N 51°05' E 003°44'0 0.0
2014-Jul-14 05:34N 51°05' E 003°44'0 0.0
2014-Jul-14 04:34N 51°05' E 003°44'0 0.0
2014-Jul-14 03:33N 51°05' E 003°44'0 0.0
2014-Jul-14 02:33N 51°05' E 003°44'0 0.0
2014-Jul-14 01:34N 51°05' E 003°44'0 0.0
2014-Jul-14 00:33N 51°05' E 003°44'0 0.0
2014-Jul-13 23:33N 51°05' E 003°44'0 0.0
2014-Jul-13 22:33N 51°05' E 003°44'0 0.0
2014-Jul-13 21:33N 51°05' E 003°44'0 0.0
2014-Jul-13 20:33N 51°05' E 003°44'0 0.0
2014-Jul-13 19:34N 51°05' E 003°44'0 0.0
2014-Jul-13 18:34N 51°05' E 003°44'0 0.0
2014-Jul-13 17:34N 51°05' E 003°44'0 0.0
2014-Jul-13 16:33N 51°05' E 003°44'0 0.0
2014-Jul-13 15:34N 51°05' E 003°44'0 0.0
2014-Jul-13 14:34N 51°05' E 003°44'0 0.0
2014-Jul-13 13:34N 51°05' E 003°44'0 0.0
2014-Jul-13 12:33N 51°05' E 003°44'0 0.0
2014-Jul-13 11:33N 51°05' E 003°44'0 0.0
2014-Jul-13 10:33N 51°05' E 003°44'0 0.0
2014-Jul-13 09:33N 51°05' E 003°44'0 0.0
2014-Jul-13 08:33N 51°05' E 003°44'0 0.0
2014-Jul-13 07:34N 51°05' E 003°44'0 0.0
2014-Jul-13 06:34N 51°05' E 003°44'0 0.0
2014-Jul-13 05:34N 51°05' E 003°44'0 0.0
2014-Jul-13 04:34N 51°05' E 003°44'0 0.0
2014-Jul-13 03:33N 51°05' E 003°44'0 0.0
2014-Jul-13 02:34N 51°05' E 003°44'0 0.0
2014-Jul-13 01:34N 51°05' E 003°44'0 0.0
2014-Jul-13 00:34N 51°05' E 003°44'0 0.0
2014-Jul-12 23:33N 51°05' E 003°44'0 0.0
2014-Jul-12 22:33N 51°05' E 003°44'0 0.0
2014-Jul-12 21:33N 51°05' E 003°44'0 0.0
2014-Jul-12 20:33N 51°05' E 003°44'0 0.0
2014-Jul-12 19:34N 51°05' E 003°44'0 0.0
2014-Jul-12 18:34N 51°05' E 003°44'0 0.0
2014-Jul-12 17:33N 51°05' E 003°44'0 0.0
2014-Jul-12 16:34N 51°05' E 003°44'0 0.0
2014-Jul-12 15:34N 51°05' E 003°44'0 0.0
2014-Jul-12 14:34N 51°05' E 003°44'0 0.0
2014-Jul-12 13:33N 51°05' E 003°44'0 0.0
2014-Jul-12 12:34N 51°05' E 003°44'0 0.0
2014-Jul-12 11:33N 51°05' E 003°44'0 0.0
2014-Jul-12 10:33N 51°05' E 003°44'0 0.0
2014-Jul-12 09:33N 51°05' E 003°44'0 0.0
2014-Jul-12 08:33N 51°05' E 003°44'0 0.0
2014-Jul-12 07:34N 51°05' E 003°44'0 0.0
2014-Jul-12 06:34N 51°05' E 003°44'0 0.0
2014-Jul-12 05:34N 51°05' E 003°44'0 0.0
2014-Jul-12 04:34N 51°05' E 003°44'0 0.0
2014-Jul-12 03:33N 51°05' E 003°44'0 0.0
2014-Jul-12 02:33N 51°05' E 003°44'0 0.0
2014-Jul-12 01:34N 51°05' E 003°44'0 0.0
2014-Jul-12 00:33N 51°05' E 003°44'0 0.0
2014-Jul-11 23:33N 51°05' E 003°44'0 0.0
2014-Jul-11 22:33N 51°05' E 003°44'0 0.0
2014-Jul-11 21:33N 51°05' E 003°44'0 0.0
2014-Jul-11 20:33N 51°05' E 003°44'0 0.0
2014-Jul-11 19:33N 51°05' E 003°44'0 0.0
2014-Jul-11 18:33N 51°05' E 003°44'0 0.0
2014-Jul-11 17:33N 51°05' E 003°44'0 0.0
2014-Jul-11 16:33N 51°05' E 003°44'0 0.0
2014-Jul-11 15:33N 51°05' E 003°44'0 0.0
2014-Jul-11 14:33N 51°05' E 003°44'0 0.0
2014-Jul-11 13:33N 51°05' E 003°44'0 0.0
2014-Jul-11 12:33N 51°05' E 003°44'0 0.0
2014-Jul-11 11:33N 51°05' E 003°44'0 0.0
2014-Jul-11 10:33N 51°05' E 003°44'0 0.0
2014-Jul-11 09:33N 51°05' E 003°44'0 0.0
2014-Jul-11 08:33N 51°05' E 003°44'0 0.0
2014-Jul-11 07:33N 51°05' E 003°44'0 0.0
2014-Jul-11 06:34N 51°05' E 003°44'0 0.0
2014-Jul-11 05:33N 51°05' E 003°44'0 0.0
2014-Jul-11 04:33N 51°05' E 003°44'0 0.0
2014-Jul-11 03:33N 51°05' E 003°44'0 0.0
2014-Jul-11 02:33N 51°05' E 003°44'0 0.0
2014-Jul-11 01:33N 51°05' E 003°44'0 0.0
2014-Jul-11 00:33N 51°05' E 003°44'0 0.0
2014-Jul-10 23:33N 51°05' E 003°44'0 0.0
2014-Jul-10 22:33N 51°05' E 003°44'0 0.0
2014-Jul-10 21:33N 51°05' E 003°44'0 0.0
2014-Jul-10 20:33N 51°05' E 003°44'0 0.0
2014-Jul-10 19:33N 51°05' E 003°44'0 0.0
2014-Jul-10 18:33N 51°05' E 003°44'0 0.0
2014-Jul-10 17:33N 51°05' E 003°44'0 0.0
2014-Jul-10 16:33N 51°05' E 003°44'0 0.0
2014-Jul-10 15:33N 51°05' E 003°44'0 0.0
2014-Jul-10 14:34N 51°05' E 003°44'0 0.0
2014-Jul-10 13:33N 51°05' E 003°44'0 0.0
2014-Jul-10 12:33N 51°05' E 003°44'0 0.0
2014-Jul-10 11:33N 51°05' E 003°44'0 0.0
2014-Jul-10 10:33N 51°05' E 003°44'0 0.0
2014-Jul-10 09:33N 51°05' E 003°44'0 0.0
2014-Jul-10 08:33N 51°05' E 003°44'0 0.0
2014-Jul-10 07:33N 51°05' E 003°44'0 0.0
2014-Jul-10 06:34N 51°05' E 003°44'0 0.0
2014-Jul-10 05:34N 51°05' E 003°44'0 0.0
2014-Jul-10 04:34N 51°05' E 003°44'0 0.0
2014-Jul-10 03:33N 51°05' E 003°44'0 0.0
2014-Jul-10 02:34N 51°05' E 003°44'0 0.0
2014-Jul-10 01:33N 51°05' E 003°44'0 0.0
2014-Jul-10 00:33N 51°05' E 003°44'0 0.3
2014-Jul-09 23:33N 51°05' E 003°44'6 6.1
2014-Jul-09 22:33N 51°11' E 003°48'7 7.1
2014-Jul-09 21:33N 51°18' E 003°50'3 2.7
2014-Jul-09 20:34N 51°20' E 003°49'1010.1
2014-Jul-09 19:34N 51°26' E 003°35'1010.1
2014-Jul-09 18:33N 51°24' E 003°19'9 8.5
2014-Jul-09 17:27N 51°24' E 003°04'5 5.1
2014-Jul-09 16:34N 51°23' E 002°57'5 5.3
2014-Jul-09 15:33N 51°21' E 002°49'6 6.3
2014-Jul-09 14:33N 51°21' E 002°39'  

Dump ship's entire track history